Time;durP1;ratioP1;P1;durP2;ratioP2;P2;SDS_P1;SDS_P2;PMS_P1;PMS_P2;Temp;Humidity;BMP_temperature;BMP_pressure;BME280_temperature;BME280_humidity;BME280_pressure;Samples;Min_cycle;Max_cycle;Signal;HPM_P1;HPM_P2
2022/07/17 00:02:06;;;;;;;2.50;1.95;;;14.80;99.90;;;;;;5059943;28;20044;-78
2022/07/17 00:04:32;;;;;;;1.55;1.45;;;14.80;99.90;;;;;;5055471;28;20171;-78
2022/07/17 00:06:57;;;;;;;5.25;1.92;;;14.80;99.90;;;;;;5043129;28;20036;-78
2022/07/17 00:09:23;;;;;;;3.13;1.83;;;14.80;99.90;;;;;;5046896;28;20511;-78
2022/07/17 00:11:48;;;;;;;3.08;1.85;;;14.80;99.90;;;;;;5053477;28;20045;-78
2022/07/17 00:14:14;;;;;;;1.55;1.40;;;14.70;99.90;;;;;;5054511;28;20125;-78
2022/07/17 00:16:39;;;;;;;2.65;1.17;;;14.70;99.90;;;;;;5059804;28;20052;-78
2022/07/17 00:19:06;;;;;;;2.17;1.70;;;14.70;99.90;;;;;;5053875;28;20067;-78
2022/07/17 00:21:32;;;;;;;1.67;1.45;;;14.60;99.90;;;;;;5059648;28;20447;-78
2022/07/17 00:23:58;;;;;;;3.00;1.95;;;14.60;99.90;;;;;;5058486;28;20116;-78
2022/07/17 00:26:24;;;;;;;3.78;1.83;;;14.60;99.90;;;;;;5058284;28;20036;-78
2022/07/17 00:28:49;;;;;;;3.13;2.67;;;14.50;99.90;;;;;;5047774;28;20622;-78
2022/07/17 00:31:15;;;;;;;2.33;1.40;;;14.60;99.90;;;;;;5039909;28;20082;-78
2022/07/17 00:33:41;;;;;;;4.53;2.10;;;14.50;99.90;;;;;;5041076;28;20095;-78
2022/07/17 00:36:07;;;;;;;3.83;1.83;;;14.50;99.90;;;;;;5039740;28;20033;-78
2022/07/17 00:38:33;;;;;;;1.88;1.50;;;14.50;99.90;;;;;;5039986;28;20055;-78
2022/07/17 00:40:59;;;;;;;1.52;1.35;;;14.50;99.90;;;;;;5039697;28;20352;-78
2022/07/17 00:43:25;;;;;;;2.53;1.55;;;14.50;99.90;;;;;;5039331;28;20253;-78
2022/07/17 00:45:59;;;;;;;5.63;3.22;;;14.40;99.90;;;;;;5054627;28;20441;-78
2022/07/17 00:48:25;;;;;;;5.18;2.75;;;14.50;99.90;;;;;;5058339;28;20051;-78
2022/07/17 00:50:51;;;;;;;4.53;3.75;;;14.50;99.90;;;;;;5047395;28;20051;-78
2022/07/17 00:53:17;;;;;;;7.28;2.70;;;14.50;99.90;;;;;;5039906;28;20059;-78
2022/07/17 00:55:44;;;;;;;6.75;2.05;;;14.40;99.90;;;;;;5039540;28;20033;-78
2022/07/17 00:58:12;;;;;;;3.45;1.98;;;14.50;99.90;;;;;;5057830;28;20052;-78
2022/07/17 01:00:37;;;;;;;1.98;1.77;;;14.40;99.90;;;;;;5057447;28;20403;-78
2022/07/17 01:03:03;;;;;;;3.97;2.22;;;14.40;99.90;;;;;;5049458;22;20049;-82
2022/07/17 01:05:29;;;;;;;2.85;2.05;;;14.40;99.90;;;;;;5032322;28;20050;-82
2022/07/17 01:07:55;;;;;;;2.28;1.60;;;14.30;99.90;;;;;;5005084;28;20034;-82
2022/07/17 01:10:20;;;;;;;4.55;1.80;;;14.30;99.90;;;;;;4999957;28;20144;-82
2022/07/17 01:12:47;;;;;;;4.82;1.63;;;14.30;99.90;;;;;;5007964;28;20095;-82
2022/07/17 01:15:14;;;;;;;1.77;1.50;;;14.30;99.90;;;;;;5010735;28;20042;-82
2022/07/17 01:17:40;;;;;;;1.33;1.25;;;14.30;99.90;;;;;;5004461;28;20124;-81
2022/07/17 01:20:08;;;;;;;1.98;1.35;;;14.30;99.90;;;;;;5001738;28;20516;-81
2022/07/17 01:22:45;;;;;;;1.23;1.15;;;14.30;99.90;;;;;;5019638;28;20041;-82
2022/07/17 01:25:11;;;;;;;3.08;1.90;;;14.30;99.90;;;;;;5018564;28;20128;-81
2022/07/17 01:27:37;;;;;;;1.40;1.30;;;14.20;99.90;;;;;;5017404;28;20099;-82
2022/07/17 01:30:04;;;;;;;2.05;1.58;;;14.20;99.90;;;;;;5018392;28;20038;-82
2022/07/17 01:32:34;;;;;;;1.83;1.73;;;14.20;99.90;;;;;;5018176;28;20125;-82
2022/07/17 01:35:01;;;;;;;1.90;1.27;;;14.10;99.90;;;;;;5018083;28;20050;-82
2022/07/17 01:37:27;;;;;;;1.80;1.65;;;14.10;99.90;;;;;;5018110;28;20214;-81
2022/07/17 01:39:52;;;;;;;4.47;1.83;;;14.10;99.90;;;;;;5017268;28;20088;-81
2022/07/17 01:42:18;;;;;;;1.92;1.83;;;14.10;99.90;;;;;;5017360;28;20076;-82
2022/07/17 01:44:44;;;;;;;7.18;2.30;;;14.10;99.90;;;;;;5000282;28;20046;-82
2022/07/17 01:47:12;;;;;;;5.80;2.13;;;14.10;99.90;;;;;;4998714;28;20167;-82
2022/07/17 01:49:37;;;;;;;4.10;1.50;;;14.00;99.90;;;;;;5016782;28;20046;-82
2022/07/17 01:52:03;;;;;;;2.00;1.40;;;14.10;99.90;;;;;;5011936;28;20723;-82
2022/07/17 01:54:33;;;;;;;5.20;1.83;;;14.00;99.90;;;;;;4999299;28;20267;-81
2022/07/17 01:56:58;;;;;;;5.18;2.15;;;14.00;99.90;;;;;;4997170;28;20126;-82
2022/07/17 01:59:24;;;;;;;2.22;1.90;;;14.10;99.90;;;;;;5015502;28;20053;-82
2022/07/17 02:01:49;;;;;;;1.58;1.48;;;14.00;99.90;;;;;;5017970;28;20092;-81
2022/07/17 02:04:15;;;;;;;4.55;1.60;;;14.00;99.90;;;;;;5018029;28;20041;-83
2022/07/17 02:06:41;;;;;;;1.20;1.10;;;14.00;99.90;;;;;;5004113;28;20046;-82
2022/07/17 02:09:06;;;;;;;1.38;1.25;;;13.90;99.90;;;;;;5018408;28;20065;-82
2022/07/17 02:11:32;;;;;;;5.45;1.63;;;13.90;99.90;;;;;;5015557;28;20037;-82
2022/07/17 02:13:57;;;;;;;1.63;1.52;;;13.90;99.90;;;;;;5015341;28;20496;-82
2022/07/17 02:16:23;;;;;;;1.80;1.30;;;13.80;99.90;;;;;;5014247;28;20445;-82
2022/07/17 02:18:48;;;;;;;2.30;2.10;;;13.90;99.90;;;;;;5018325;28;20104;-82
2022/07/17 02:21:14;;;;;;;1.88;1.23;;;13.90;99.90;;;;;;5007246;28;20535;-82
2022/07/17 02:23:39;;;;;;;3.00;1.58;;;13.90;99.90;;;;;;4999441;28;20117;-82
2022/07/17 02:26:05;;;;;;;0.95;0.95;;;13.80;99.90;;;;;;4998211;28;20120;-82
2022/07/17 02:28:30;;;;;;;1.40;1.30;;;13.90;99.90;;;;;;4999161;28;20117;-82
2022/07/17 02:30:56;;;;;;;1.50;1.38;;;13.90;99.90;;;;;;5016518;28;20042;-82
2022/07/17 02:33:22;;;;;;;1.08;0.85;;;13.80;99.90;;;;;;5013831;28;20088;-82
2022/07/17 02:35:47;;;;;;;2.67;1.92;;;13.80;99.90;;;;;;4998832;28;20111;-82
2022/07/17 02:38:13;;;;;;;3.05;1.55;;;13.80;99.90;;;;;;4998837;28;20046;-82
2022/07/17 02:40:39;;;;;;;1.52;1.15;;;13.70;99.90;;;;;;5010378;28;20041;-82
2022/07/17 02:43:04;;;;;;;2.00;1.85;;;13.70;99.90;;;;;;5018165;28;20692;-82
2022/07/17 02:45:30;;;;;;;2.17;1.80;;;13.70;99.90;;;;;;5017905;28;20391;-82
2022/07/17 02:47:55;;;;;;;2.10;1.90;;;13.70;99.90;;;;;;5019951;28;20117;-82
2022/07/17 02:50:21;;;;;;;5.88;1.42;;;13.70;99.90;;;;;;5014299;28;20042;-82
2022/07/17 02:52:49;;;;;;;1.65;1.20;;;13.70;99.90;;;;;;5002609;28;20076;-82
2022/07/17 02:55:16;;;;;;;3.83;1.65;;;13.80;99.90;;;;;;5001672;28;20403;-82
2022/07/17 02:57:42;;;;;;;2.47;2.03;;;13.80;99.90;;;;;;5018024;28;20046;-82
2022/07/17 03:00:11;;;;;;;1.52;1.42;;;13.80;99.90;;;;;;5009274;28;20034;-81
2022/07/17 03:02:37;;;;;;;1.63;1.52;;;13.80;99.90;;;;;;5013675;28;20045;-82
2022/07/17 03:05:04;;;;;;;3.65;1.38;;;13.80;99.90;;;;;;5015164;28;20237;-82
2022/07/17 03:07:30;;;;;;;4.80;1.55;;;13.70;99.90;;;;;;5005441;28;20319;-82
2022/07/17 03:09:55;;;;;;;5.05;1.45;;;13.70;99.90;;;;;;5010183;28;20038;-82
2022/07/17 03:12:21;;;;;;;2.75;2.20;;;13.70;99.90;;;;;;5013985;28;20475;-82
2022/07/17 03:14:46;;;;;;;1.60;1.50;;;13.70;99.90;;;;;;5021128;28;20041;-81
2022/07/17 03:17:12;;;;;;;1.67;1.48;;;13.70;99.90;;;;;;5017688;28;20127;-82
2022/07/17 03:19:37;;;;;;;2.20;1.95;;;13.70;99.90;;;;;;5012514;28;20046;-81
2022/07/17 03:22:03;;;;;;;3.88;2.28;;;13.70;99.90;;;;;;5007686;28;20582;-82
2022/07/17 03:24:29;;;;;;;2.72;1.40;;;13.70;99.90;;;;;;5006166;28;20045;-82
2022/07/17 03:26:54;;;;;;;1.80;1.65;;;13.70;99.90;;;;;;5001689;28;20045;-82
2022/07/17 03:29:20;;;;;;;2.72;1.33;;;13.60;99.90;;;;;;5001779;28;20048;-82
2022/07/17 03:31:46;;;;;;;1.42;1.35;;;13.70;99.90;;;;;;5001172;28;20034;-82
2022/07/17 03:34:12;;;;;;;3.38;1.67;;;13.70;99.90;;;;;;5008046;28;20550;-82
2022/07/17 03:36:37;;;;;;;1.92;1.80;;;13.60;99.90;;;;;;5020691;28;20128;-82
2022/07/17 03:39:03;;;;;;;1.83;1.48;;;13.60;99.90;;;;;;5021017;28;20854;-81
2022/07/17 03:41:28;;;;;;;1.10;1.10;;;13.60;99.90;;;;;;5019597;28;20127;-82
2022/07/17 03:43:54;;;;;;;4.25;1.63;;;13.60;99.90;;;;;;5021110;28;20356;-82
2022/07/17 03:46:21;;;;;;;1.63;1.40;;;13.60;99.90;;;;;;5020837;28;20514;-82
2022/07/17 03:48:46;;;;;;;2.35;1.58;;;13.60;99.90;;;;;;5012494;28;20037;-82
2022/07/17 03:51:12;;;;;;;2.55;2.08;;;13.70;99.90;;;;;;5000208;28;20060;-81
2022/07/17 03:53:37;;;;;;;1.92;1.83;;;13.70;99.90;;;;;;5006853;28;20034;-82
2022/07/17 03:56:04;;;;;;;2.00;1.33;;;13.60;99.90;;;;;;5016062;28;20672;-82
2022/07/17 03:58:30;;;;;;;3.05;1.38;;;13.60;99.90;;;;;;5008067;28;20138;-82
2022/07/17 04:00:56;;;;;;;1.35;1.27;;;13.60;99.90;;;;;;5001418;28;20064;-82
2022/07/17 04:03:22;;;;;;;4.93;2.00;;;13.70;99.90;;;;;;5005784;28;20388;-82
2022/07/17 04:05:47;;;;;;;1.42;1.27;;;13.70;99.90;;;;;;5020128;28;20058;-81
2022/07/17 04:08:13;;;;;;;1.75;1.65;;;13.70;99.90;;;;;;5012749;28;20038;-82
2022/07/17 04:10:39;;;;;;;1.15;1.10;;;13.70;99.90;;;;;;5001377;28;20075;-81
2022/07/17 04:13:04;;;;;;;3.42;1.15;;;13.70;99.90;;;;;;5011142;28;20102;-82
2022/07/17 04:18:15;;;;;;;1.52;1.42;;;13.80;99.90;;;;;;5003974;28;20053;-82
2022/07/17 04:20:41;;;;;;;2.00;1.80;;;13.80;99.90;;;;;;5020613;28;20041;-82
2022/07/17 04:23:07;;;;;;;3.63;1.13;;;13.80;99.90;;;;;;5017068;28;20128;-82
2022/07/17 04:25:32;;;;;;;1.60;1.45;;;13.80;99.90;;;;;;4999273;28;20034;-83
2022/07/17 04:27:58;;;;;;;2.40;2.05;;;13.80;99.90;;;;;;5006460;28;20041;-82
2022/07/17 04:30:23;;;;;;;1.40;1.30;;;13.80;99.90;;;;;;5005921;28;20042;-82
2022/07/17 04:32:49;;;;;;;2.05;1.58;;;13.80;99.90;;;;;;5000569;28;20446;-82
2022/07/17 04:35:14;;;;;;;1.70;1.60;;;13.80;99.90;;;;;;5001702;28;20049;-82
2022/07/17 04:37:40;;;;;;;1.55;1.45;;;13.80;99.90;;;;;;5000914;28;20045;-82
2022/07/17 04:40:06;;;;;;;4.75;1.20;;;13.80;99.90;;;;;;4999083;28;20034;-82
2022/07/17 04:42:32;;;;;;;1.98;1.60;;;13.80;99.90;;;;;;4998485;28;20144;-82
2022/07/17 04:44:57;;;;;;;1.35;1.10;;;13.90;99.90;;;;;;4999716;28;20137;-82
2022/07/17 04:47:23;;;;;;;1.33;1.23;;;13.80;99.90;;;;;;5000123;28;20045;-82
2022/07/17 04:49:49;;;;;;;3.83;1.88;;;13.90;99.90;;;;;;5009277;28;20042;-82
2022/07/17 04:52:14;;;;;;;1.75;1.65;;;13.90;99.90;;;;;;5019237;28;20052;-83
2022/07/17 04:54:40;;;;;;;2.55;2.35;;;13.90;99.90;;;;;;5017222;28;20084;-82
2022/07/17 04:57:05;;;;;;;2.22;1.42;;;13.90;99.90;;;;;;5000835;28;20041;-82
2022/07/17 04:59:31;;;;;;;4.18;1.95;;;13.90;99.90;;;;;;5019080;28;20049;-82
2022/07/17 05:01:57;;;;;;;1.75;1.48;;;13.90;99.90;;;;;;5000267;28;20058;-82
2022/07/17 05:04:23;;;;;;;1.83;1.40;;;13.90;99.90;;;;;;5002701;28;20226;-83
2022/07/17 05:06:48;;;;;;;3.08;1.73;;;13.90;99.90;;;;;;5018371;28;20045;-83
2022/07/17 05:09:14;;;;;;;2.28;1.77;;;14.00;99.90;;;;;;5016793;28;20041;-82
2022/07/17 05:11:40;;;;;;;1.20;1.10;;;14.00;99.90;;;;;;4999878;28;20084;-82
2022/07/17 05:14:05;;;;;;;1.33;1.25;;;14.00;99.90;;;;;;5014077;28;20117;-82
2022/07/17 05:16:31;;;;;;;1.60;1.50;;;14.00;99.90;;;;;;5006369;28;20033;-82
2022/07/17 05:18:57;;;;;;;1.35;1.25;;;14.00;99.90;;;;;;5015932;28;20547;-82
2022/07/17 05:21:22;;;;;;;1.25;1.20;;;14.00;99.90;;;;;;4998982;28;20069;-83
2022/07/17 05:23:48;;;;;;;2.03;1.70;;;14.00;99.90;;;;;;5009778;28;20046;-82
2022/07/17 05:26:13;;;;;;;1.27;1.15;;;14.00;99.90;;;;;;5000304;28;20042;-82
2022/07/17 05:28:39;;;;;;;1.75;1.60;;;14.10;99.90;;;;;;5003307;28;20103;-82
2022/07/17 05:31:05;;;;;;;1.90;1.80;;;14.10;99.90;;;;;;5017035;28;20304;-81
2022/07/17 05:33:31;;;;;;;1.45;1.35;;;14.10;99.90;;;;;;5017431;28;20446;-82
2022/07/17 05:35:56;;;;;;;1.27;1.17;;;14.20;99.90;;;;;;5017319;28;20045;-82
2022/07/17 05:38:22;;;;;;;2.00;1.33;;;14.20;99.90;;;;;;5018733;28;20042;-82
2022/07/17 05:40:47;;;;;;;2.58;2.35;;;14.20;99.90;;;;;;4999953;28;20054;-83
2022/07/17 05:43:13;;;;;;;1.55;1.45;;;14.30;99.90;;;;;;4998613;28;20117;-82
2022/07/17 05:45:39;;;;;;;2.05;1.50;;;14.30;99.90;;;;;;4998055;28;20234;-81
2022/07/17 05:48:06;;;;;;;4.05;1.35;;;14.30;99.90;;;;;;4999134;28;20543;-82
2022/07/17 05:50:32;;;;;;;1.38;1.27;;;14.30;99.90;;;;;;5004051;28;20072;-82
2022/07/17 05:52:58;;;;;;;1.35;1.25;;;14.40;99.90;;;;;;5011158;28;20493;-82
2022/07/17 05:55:23;;;;;;;1.73;1.10;;;14.40;99.90;;;;;;4999534;28;20042;-83
2022/07/17 05:57:49;;;;;;;0.85;0.85;;;14.40;99.90;;;;;;5000337;28;20045;-82
2022/07/17 06:00:15;;;;;;;1.70;1.02;;;14.50;99.90;;;;;;4998651;28;20124;-82
2022/07/17 06:02:40;;;;;;;1.73;1.63;;;14.50;99.90;;;;;;5015618;28;20765;-82
2022/07/17 06:05:07;;;;;;;1.42;1.35;;;14.50;99.90;;;;;;5014994;28;20046;-82
2022/07/17 06:07:32;;;;;;;2.85;1.50;;;14.60;99.90;;;;;;5014963;28;20095;-82
2022/07/17 06:09:58;;;;;;;2.33;1.05;;;14.60;99.90;;;;;;4997627;28;21759;-82
2022/07/17 06:12:24;;;;;;;1.20;1.10;;;14.70;99.90;;;;;;4999120;28;20046;-82
2022/07/17 06:14:49;;;;;;;3.40;1.63;;;14.70;99.90;;;;;;5004067;28;20040;-82
2022/07/17 06:17:15;;;;;;;3.72;1.55;;;14.70;99.90;;;;;;5014731;28;20491;-83
2022/07/17 06:19:41;;;;;;;2.35;1.27;;;14.80;99.90;;;;;;4999090;28;20112;-82
2022/07/17 06:22:06;;;;;;;1.58;1.48;;;14.80;99.90;;;;;;5001447;28;20088;-82
2022/07/17 06:24:32;;;;;;;1.90;1.60;;;14.80;99.90;;;;;;5011124;28;20046;-82
2022/07/17 06:26:57;;;;;;;2.40;1.58;;;14.90;99.90;;;;;;5003357;28;20042;-82
2022/07/17 06:29:23;;;;;;;1.10;1.05;;;14.90;99.90;;;;;;5001961;28;20192;-82
2022/07/17 06:31:48;;;;;;;2.58;1.42;;;14.90;99.90;;;;;;5015386;28;20133;-83
2022/07/17 06:34:14;;;;;;;1.75;1.60;;;15.00;99.90;;;;;;5020812;28;20041;-82
2022/07/17 06:36:39;;;;;;;1.98;1.50;;;15.00;99.90;;;;;;5020863;28;20053;-82
2022/07/17 06:39:05;;;;;;;1.42;1.23;;;15.10;99.90;;;;;;5017592;28;20640;-82
2022/07/17 06:41:31;;;;;;;2.10;1.48;;;15.10;99.90;;;;;;5001941;28;20049;-82
2022/07/17 06:43:56;;;;;;;1.17;1.10;;;15.10;99.90;;;;;;5004539;28;20037;-83
2022/07/17 06:46:22;;;;;;;2.50;1.77;;;15.10;99.90;;;;;;4985517;28;20480;-83
2022/07/17 06:48:51;;;;;;;4.03;1.48;;;15.20;99.90;;;;;;5003226;28;20499;-83
2022/07/17 06:51:17;;;;;;;2.80;1.17;;;15.20;99.90;;;;;;4999450;28;20499;-83
2022/07/17 06:53:42;;;;;;;4.53;1.65;;;15.20;99.90;;;;;;5003744;28;20053;-83
2022/07/17 06:56:08;;;;;;;2.47;1.45;;;15.20;99.90;;;;;;5009294;28;20045;-82
2022/07/17 06:58:34;;;;;;;2.42;1.25;;;15.30;99.90;;;;;;5007133;28;20313;-82
2022/07/17 07:00:59;;;;;;;1.77;1.05;;;15.30;99.90;;;;;;5014481;28;20135;-83
2022/07/17 07:03:25;;;;;;;2.95;1.35;;;15.30;99.90;;;;;;5016610;28;20045;-84
2022/07/17 07:05:50;;;;;;;2.33;1.35;;;15.40;99.90;;;;;;5012269;28;20045;-84
2022/07/17 07:08:16;;;;;;;4.43;2.08;;;15.40;99.90;;;;;;5015195;28;20176;-83
2022/07/17 07:10:42;;;;;;;3.90;1.58;;;15.50;99.90;;;;;;5017397;28;20049;-83
2022/07/17 07:13:08;;;;;;;4.20;1.58;;;15.40;99.90;;;;;;5017164;28;20045;-83
2022/07/17 07:15:34;;;;;;;4.95;1.40;;;15.50;99.90;;;;;;5018496;28;20045;-83
2022/07/17 07:17:59;;;;;;;2.90;0.90;;;15.50;99.90;;;;;;5007274;28;20057;-84
2022/07/17 07:20:25;;;;;;;0.82;0.82;;;15.50;99.90;;;;;;5011301;28;20389;-83
2022/07/17 07:22:51;;;;;;;0.93;0.80;;;15.50;99.90;;;;;;5018117;28;20045;-83
2022/07/17 07:25:17;;;;;;;2.05;0.80;;;15.50;99.90;;;;;;5007184;28;20049;-83
2022/07/17 07:27:42;;;;;;;0.85;0.70;;;15.60;99.90;;;;;;5031109;28;20034;-82
2022/07/17 07:30:09;;;;;;;3.63;1.55;;;15.60;99.90;;;;;;5017082;28;20137;-83
2022/07/17 07:32:36;;;;;;;0.80;0.80;;;15.60;99.90;;;;;;5022750;28;20073;-83
2022/07/17 07:35:02;;;;;;;3.10;1.55;;;15.70;99.90;;;;;;5009964;28;20128;-84
2022/07/17 07:37:28;;;;;;;0.85;0.82;;;15.70;99.90;;;;;;5012588;28;20041;-84
2022/07/17 07:39:54;;;;;;;1.70;1.10;;;15.70;99.90;;;;;;5007470;28;20038;-84
2022/07/17 07:42:19;;;;;;;1.02;0.52;;;15.70;99.90;;;;;;5022159;28;20081;-83
2022/07/17 07:44:45;;;;;;;2.45;0.90;;;15.80;99.90;;;;;;5021929;28;20034;-85
2022/07/17 07:47:10;;;;;;;1.83;0.88;;;15.80;99.90;;;;;;5007347;28;20045;-85
2022/07/17 07:49:36;;;;;;;2.53;1.13;;;15.80;99.90;;;;;;5012878;28;20053;-85
2022/07/17 07:52:02;;;;;;;0.60;0.60;;;15.80;99.90;;;;;;5008344;28;20033;-83
2022/07/17 07:54:27;;;;;;;7.15;1.05;;;15.90;99.90;;;;;;5010116;28;20037;-83
2022/07/17 07:56:54;;;;;;;1.45;1.25;;;15.90;99.90;;;;;;5021885;28;20037;-83
2022/07/17 07:59:20;;;;;;;4.43;1.38;;;15.90;99.90;;;;;;5006551;28;20120;-88
2022/07/17 08:01:46;;;;;;;1.85;0.75;;;16.00;99.90;;;;;;5002669;28;20065;-79
2022/07/17 08:04:11;;;;;;;7.60;0.98;;;16.00;99.90;;;;;;5018905;28;20049;-80
2022/07/17 08:06:38;;;;;;;1.67;0.95;;;16.10;99.90;;;;;;5020892;28;20447;-79
2022/07/17 08:09:04;;;;;;;2.35;1.60;;;16.10;99.90;;;;;;5018840;28;20559;-80
2022/07/17 08:11:30;;;;;;;2.30;1.20;;;16.10;99.90;;;;;;5008882;28;20695;-79
2022/07/17 08:13:55;;;;;;;2.25;0.98;;;16.10;99.90;;;;;;5009268;28;20033;-79
2022/07/17 08:16:21;;;;;;;2.17;1.10;;;16.20;99.90;;;;;;5018745;28;20719;-79
2022/07/17 08:18:46;;;;;;;0.93;0.85;;;16.20;99.90;;;;;;5015900;28;20038;-80
2022/07/17 08:21:12;;;;;;;1.40;0.60;;;16.20;99.90;;;;;;5019555;28;20073;-80
2022/07/17 08:23:37;;;;;;;0.82;0.82;;;16.20;99.90;;;;;;5008833;28;20049;-80
2022/07/17 08:26:03;;;;;;;1.00;0.90;;;16.30;99.90;;;;;;5020784;28;20052;-81
2022/07/17 08:28:29;;;;;;;3.15;0.68;;;16.30;99.90;;;;;;5021616;28;20045;-82
2022/07/17 08:30:54;;;;;;;1.52;0.70;;;16.30;99.90;;;;;;5020919;28;20518;-81
2022/07/17 08:33:20;;;;;;;1.23;1.13;;;16.30;99.90;;;;;;5021079;28;20060;-80
2022/07/17 08:35:46;;;;;;;0.68;0.68;;;16.40;99.90;;;;;;5017866;28;20595;-81
2022/07/17 08:38:11;;;;;;;2.20;1.10;;;16.40;99.90;;;;;;5011473;28;20038;-85
2022/07/17 08:40:38;;;;;;;1.17;1.02;;;16.40;99.90;;;;;;5015410;28;20152;-87
2022/07/17 08:43:06;;;;;;;0.45;0.45;;;16.40;99.90;;;;;;5001297;28;20041;-86
2022/07/17 08:45:32;;;;;;;0.50;0.50;;;16.50;99.90;;;;;;5018660;28;20037;-85
2022/07/17 08:47:58;;;;;;;0.50;0.50;;;16.50;99.90;;;;;;5019865;28;20060;-88
2022/07/17 08:50:33;;;;;;;2.42;1.30;;;16.60;99.90;;;;;;5015110;28;20409;-90
2022/07/17 08:52:59;;;;;;;0.80;0.80;;;16.60;99.90;;;;;;5016333;28;20116;-83
2022/07/17 08:55:25;;;;;;;0.88;0.88;;;16.60;99.90;;;;;;5008808;28;20607;-79
2022/07/17 08:57:50;;;;;;;1.50;1.25;;;16.70;99.90;;;;;;5008275;28;20621;-79
2022/07/17 09:00:19;;;;;;;0.80;0.80;;;16.70;99.90;;;;;;5004503;28;20050;-80
2022/07/17 09:03:05;;;;;;;1.33;1.10;;;16.70;99.90;;;;;;5017736;28;20088;-81
2022/07/17 09:05:36;;;;;;;1.10;1.00;;;16.70;99.90;;;;;;5010181;28;20067;-80
2022/07/17 09:08:03;;;;;;;1.60;0.68;;;16.80;99.90;;;;;;5011325;28;20041;-81
2022/07/17 09:10:37;;;;;;;2.95;0.70;;;16.80;99.90;;;;;;5004503;28;20050;-89
2022/07/17 09:13:28;;;;;;;0.50;0.50;;;16.80;99.90;;;;;;5008073;28;20468;-85
2022/07/17 09:15:57;;;;;;;0.47;0.47;;;16.90;99.90;;;;;;5017097;28;20052;-83
2022/07/17 09:18:23;;;;;;;1.33;0.77;;;16.90;99.90;;;;;;5010197;28;20095;-85
2022/07/17 09:20:53;;;;;;;0.75;0.75;;;17.00;99.90;;;;;;5015639;28;20042;-82
2022/07/17 09:23:20;;;;;;;1.50;1.23;;;17.00;99.90;;;;;;5005023;28;20069;-77
2022/07/17 09:25:49;;;;;;;1.58;1.10;;;17.10;99.90;;;;;;5018291;28;20407;-74
2022/07/17 09:28:16;;;;;;;1.40;0.98;;;17.20;99.90;;;;;;5017949;28;20044;-74
2022/07/17 09:30:44;;;;;;;0.95;0.68;;;17.20;99.90;;;;;;5019913;28;20068;-76
2022/07/17 09:33:19;;;;;;;1.67;0.68;;;17.30;99.90;;;;;;5016058;28;20717;-77
2022/07/17 09:35:55;;;;;;;0.95;0.70;;;17.30;99.90;;;;;;5018688;28;20553;-76
2022/07/17 09:38:26;;;;;;;0.70;0.70;;;17.30;99.90;;;;;;5002050;28;20042;-76
2022/07/17 09:41:15;;;;;;;1.20;0.68;;;17.30;99.90;;;;;;5017346;28;20550;-76
2022/07/17 09:43:50;;;;;;;7.30;1.02;;;17.30;99.90;;;;;;5017740;28;20106;-76
2022/07/17 09:46:25;;;;;;;1.58;1.05;;;17.30;99.90;;;;;;5018079;28;20492;-77
2022/07/17 09:48:57;;;;;;;3.20;0.80;;;17.30;99.90;;;;;;5018199;28;20045;-76
2022/07/17 09:51:34;;;;;;;0.70;0.70;;;17.40;99.90;;;;;;5018362;28;20526;-76
2022/07/17 09:54:02;;;;;;;0.77;0.77;;;17.40;99.90;;;;;;5017486;28;20128;-77
2022/07/17 09:56:33;;;;;;;0.88;0.50;;;17.40;99.90;;;;;;5019672;28;20050;-76
2022/07/17 09:59:18;;;;;;;1.65;0.65;;;17.40;99.90;;;;;;5022353;28;20432;-77
2022/07/17 10:01:48;;;;;;;0.70;0.70;;;17.40;99.90;;;;;;5021965;28;20037;-76
2022/07/17 10:04:17;;;;;;;0.80;0.80;;;17.40;99.90;;;;;;5021367;28;20541;-76
2022/07/17 10:06:43;;;;;;;0.73;0.47;;;17.40;99.90;;;;;;5022953;28;20544;-76
2022/07/17 10:09:09;;;;;;;0.60;0.60;;;17.40;99.90;;;;;;5020396;28;20045;-76
2022/07/17 10:11:40;;;;;;;5.78;1.10;;;17.50;99.90;;;;;;5022230;28;20041;-76
2022/07/17 10:14:10;;;;;;;0.30;0.30;;;17.50;99.90;;;;;;5002917;28;20076;-76
2022/07/17 10:16:38;;;;;;;1.73;0.88;;;17.50;99.90;;;;;;5002544;28;20038;-76
2022/07/17 10:19:15;;;;;;;2.13;1.13;;;17.60;99.90;;;;;;5002582;28;20038;-76
2022/07/17 10:21:56;;;;;;;3.53;1.23;;;17.60;99.90;;;;;;5002391;28;20053;-76
2022/07/17 10:24:22;;;;;;;0.82;0.82;;;17.70;99.90;;;;;;5001735;28;20034;-76
2022/07/17 10:26:49;;;;;;;1.23;1.00;;;17.70;99.90;;;;;;5002020;28;20045;-76
2022/07/17 10:29:36;;;;;;;1.70;1.02;;;17.70;99.90;;;;;;5002453;28;20053;-76
2022/07/17 10:32:13;;;;;;;1.88;1.08;;;17.70;99.90;;;;;;5000494;28;20124;-76
2022/07/17 10:34:40;;;;;;;2.33;1.10;;;17.80;99.90;;;;;;5002678;28;20038;-76
2022/07/17 10:37:24;;;;;;;0.80;0.73;;;17.80;99.90;;;;;;5001657;28;20042;-76
2022/07/17 10:40:19;;;;;;;2.75;0.90;;;17.90;99.90;;;;;;5001376;28;20400;-76
2022/07/17 10:42:51;;;;;;;1.40;1.10;;;18.00;99.90;;;;;;5002012;28;20092;-76
2022/07/17 10:45:23;;;;;;;0.73;0.60;;;18.00;99.90;;;;;;5001239;28;20049;-77
2022/07/17 10:47:54;;;;;;;1.05;0.80;;;18.10;99.90;;;;;;5001583;28;20034;-76
2022/07/17 10:50:29;;;;;;;7.00;1.08;;;18.10;99.90;;;;;;5001171;28;20074;-76
2022/07/17 10:53:09;;;;;;;3.33;0.68;;;18.10;99.90;;;;;;5001555;28;20046;-76
2022/07/17 10:55:37;;;;;;;1.25;1.10;;;18.20;99.90;;;;;;5000283;28;20326;-76
2022/07/17 10:58:13;;;;;;;1.15;0.93;;;18.20;99.90;;;;;;5000180;28;20791;-77
2022/07/17 11:00:39;;;;;;;0.93;0.70;;;18.20;99.90;;;;;;5002206;28;20046;-76
2022/07/17 11:03:11;;;;;;;3.22;1.20;;;18.20;99.90;;;;;;5000240;28;20487;-76
2022/07/17 11:05:38;;;;;;;1.35;0.80;;;18.20;99.90;;;;;;4984539;28;20057;-76
2022/07/17 11:08:08;;;;;;;1.77;1.02;;;18.20;99.90;;;;;;5001016;28;20184;-76
2022/07/17 11:10:35;;;;;;;3.15;0.93;;;18.20;99.90;;;;;;5001184;28;20528;-76
2022/07/17 11:13:15;;;;;;;0.85;0.85;;;18.30;99.90;;;;;;5010317;28;20041;-76
2022/07/17 11:15:41;;;;;;;1.02;0.75;;;18.40;99.90;;;;;;5021386;28;20786;-77
2022/07/17 11:18:19;;;;;;;2.25;1.45;;;18.40;99.90;;;;;;5020565;28;20038;-76
2022/07/17 11:20:57;;;;;;;2.45;0.82;;;18.40;99.90;;;;;;5021437;28;20045;-76
2022/07/17 11:23:28;;;;;;;0.75;0.63;;;18.50;99.90;;;;;;5020207;28;20041;-77
2022/07/17 11:26:14;;;;;;;1.05;0.95;;;18.50;99.90;;;;;;5020710;28;20113;-76
2022/07/17 11:28:43;;;;;;;0.73;0.73;;;18.60;99.90;;;;;;5021628;28;20033;-77
2022/07/17 11:31:24;;;;;;;1.23;1.13;;;18.60;99.90;;;;;;5020179;28;20725;-76
2022/07/17 11:33:50;;;;;;;1.42;1.33;;;18.60;99.90;;;;;;5020898;28;20049;-76
2022/07/17 11:36:33;;;;;;;1.13;1.02;;;18.70;99.90;;;;;;5020774;28;20049;-76
2022/07/17 11:39:18;;;;;;;6.38;1.25;;;18.70;99.90;;;;;;5020038;28;20042;-76
2022/07/17 11:41:46;;;;;;;0.77;0.77;;;18.70;99.90;;;;;;5018647;28;20045;-76
2022/07/17 11:44:17;;;;;;;0.77;0.77;;;18.80;99.90;;;;;;5019748;28;20037;-76
2022/07/17 11:46:45;;;;;;;0.85;0.85;;;18.80;99.90;;;;;;5020154;28;20392;-77
2022/07/17 11:49:23;;;;;;;0.73;0.73;;;18.80;99.90;;;;;;5020981;28;20041;-76
2022/07/17 11:51:48;;;;;;;2.65;1.45;;;18.90;99.90;;;;;;5020834;28;20056;-76
2022/07/17 11:54:15;;;;;;;0.85;0.80;;;18.90;99.90;;;;;;5019558;28;20516;-76
2022/07/17 11:56:50;;;;;;;3.33;1.38;;;18.90;99.90;;;;;;5020672;28;20579;-76
2022/07/17 11:59:25;;;;;;;3.40;1.20;;;18.90;99.90;;;;;;5019379;28;20496;-77
2022/07/17 12:01:50;;;;;;;0.85;0.85;;;18.90;99.90;;;;;;5019854;28;20270;-77
2022/07/17 12:04:16;;;;;;;3.22;1.00;;;19.00;99.90;;;;;;5019268;28;20045;-77
2022/07/17 12:06:42;;;;;;;1.13;1.08;;;19.10;99.90;;;;;;5019600;28;20057;-76
2022/07/17 12:09:08;;;;;;;0.93;0.93;;;19.10;99.90;;;;;;5019481;28;20484;-76
2022/07/17 12:11:45;;;;;;;1.50;1.40;;;19.10;99.90;;;;;;5018607;28;20068;-76
2022/07/17 12:14:11;;;;;;;0.93;0.88;;;19.10;99.90;;;;;;4999383;28;20069;-76
2022/07/17 12:16:37;;;;;;;2.20;1.23;;;19.10;99.90;;;;;;5000524;28;20123;-76
2022/07/17 12:19:06;;;;;;;1.10;0.98;;;19.20;99.90;;;;;;5000292;28;20038;-76
2022/07/17 12:21:33;;;;;;;1.75;1.23;;;19.10;99.90;;;;;;4999177;28;20053;-76
2022/07/17 12:24:04;;;;;;;1.20;0.85;;;19.10;99.90;;;;;;4998295;28;20139;-77
2022/07/17 12:26:31;;;;;;;1.00;0.93;;;19.10;99.90;;;;;;5000676;28;20148;-76
2022/07/17 12:28:57;;;;;;;0.82;0.82;;;19.10;99.90;;;;;;4999799;28;20042;-77
2022/07/17 12:31:23;;;;;;;0.85;0.85;;;19.20;99.90;;;;;;5000102;28;20455;-76
2022/07/17 12:33:51;;;;;;;5.68;0.90;;;19.20;99.90;;;;;;4999875;28;20049;-77
2022/07/17 12:36:17;;;;;;;1.05;1.05;;;19.30;99.90;;;;;;5000179;28;20514;-77
2022/07/17 12:38:43;;;;;;;1.83;1.27;;;19.30;99.90;;;;;;5000006;28;20473;-77
2022/07/17 12:41:09;;;;;;;1.95;1.65;;;19.40;99.90;;;;;;4999826;28;20130;-76
2022/07/17 12:43:35;;;;;;;1.98;1.17;;;19.40;99.90;;;;;;4999839;28;20053;-77
2022/07/17 12:46:01;;;;;;;1.60;1.00;;;19.40;99.90;;;;;;5000051;28;20038;-76
2022/07/17 12:48:26;;;;;;;2.05;1.10;;;19.40;99.90;;;;;;5000020;28;20034;-76
2022/07/17 12:50:52;;;;;;;1.40;1.15;;;19.50;99.90;;;;;;4999537;28;20435;-76
2022/07/17 12:53:18;;;;;;;2.65;1.30;;;19.50;99.90;;;;;;4999066;28;20089;-76